sensor_id;sensor_type;location;lat;lon;timestamp;P1;durP1;ratioP1;P2;durP2;ratioP2
78508;SDS011;67802;50.846;7.958;2024-02-26T00:01:21;2.75;;;1.23;;
78508;SDS011;67802;50.846;7.958;2024-02-26T00:03:46;3.38;;;1.30;;
78508;SDS011;67802;50.846;7.958;2024-02-26T00:06:12;3.55;;;1.45;;
78508;SDS011;67802;50.846;7.958;2024-02-26T00:08:38;4.13;;;1.45;;
78508;SDS011;67802;50.846;7.958;2024-02-26T00:11:03;3.60;;;1.30;;
78508;SDS011;67802;50.846;7.958;2024-02-26T00:13:28;3.40;;;1.40;;
78508;SDS011;67802;50.846;7.958;2024-02-26T00:15:54;3.35;;;1.35;;
78508;SDS011;67802;50.846;7.958;2024-02-26T00:18:19;3.20;;;1.33;;
78508;SDS011;67802;50.846;7.958;2024-02-26T00:20:44;3.40;;;1.35;;
78508;SDS011;67802;50.846;7.958;2024-02-26T00:23:10;2.63;;;1.20;;
78508;SDS011;67802;50.846;7.958;2024-02-26T00:25:35;3.38;;;1.33;;
78508;SDS011;67802;50.846;7.958;2024-02-26T00:28:02;3.85;;;1.60;;
78508;SDS011;67802;50.846;7.958;2024-02-26T00:30:28;2.92;;;1.30;;
78508;SDS011;67802;50.846;7.958;2024-02-26T00:32:53;3.20;;;1.20;;
78508;SDS011;67802;50.846;7.958;2024-02-26T00:35:19;3.22;;;1.10;;
78508;SDS011;67802;50.846;7.958;2024-02-26T00:37:45;3.05;;;1.27;;
78508;SDS011;67802;50.846;7.958;2024-02-26T00:40:11;3.20;;;1.33;;
78508;SDS011;67802;50.846;7.958;2024-02-26T00:42:36;4.90;;;1.13;;
78508;SDS011;67802;50.846;7.958;2024-02-26T00:45:02;2.97;;;1.00;;
78508;SDS011;67802;50.846;7.958;2024-02-26T00:47:27;1.85;;;1.00;;
78508;SDS011;67802;50.846;7.958;2024-02-26T00:49:52;3.85;;;1.23;;
78508;SDS011;67802;50.846;7.958;2024-02-26T00:52:18;2.58;;;1.10;;
78508;SDS011;67802;50.846;7.958;2024-02-26T00:54:43;2.53;;;1.20;;
78508;SDS011;67802;50.846;7.958;2024-02-26T00:57:08;2.83;;;1.02;;
78508;SDS011;67802;50.846;7.958;2024-02-26T00:59:33;2.13;;;1.10;;
78508;SDS011;67802;50.846;7.958;2024-02-26T01:01:59;3.35;;;1.45;;
78508;SDS011;67802;50.846;7.958;2024-02-26T01:04:27;2.92;;;1.08;;
78508;SDS011;67802;50.846;7.958;2024-02-26T01:06:52;2.50;;;1.10;;
78508;SDS011;67802;50.846;7.958;2024-02-26T01:09:17;2.42;;;1.00;;
78508;SDS011;67802;50.846;7.958;2024-02-26T01:11:43;2.72;;;1.10;;
78508;SDS011;67802;50.846;7.958;2024-02-26T01:14:09;3.17;;;1.10;;
78508;SDS011;67802;50.846;7.958;2024-02-26T01:16:34;2.22;;;1.00;;
78508;SDS011;67802;50.846;7.958;2024-02-26T01:18:59;2.50;;;1.02;;
78508;SDS011;67802;50.846;7.958;2024-02-26T01:21:25;2.38;;;0.90;;
78508;SDS011;67802;50.846;7.958;2024-02-26T01:23:51;2.22;;;1.08;;
78508;SDS011;67802;50.846;7.958;2024-02-26T01:26:17;2.40;;;1.10;;
78508;SDS011;67802;50.846;7.958;2024-02-26T01:28:42;2.83;;;1.15;;
78508;SDS011;67802;50.846;7.958;2024-02-26T01:31:09;2.05;;;0.93;;
78508;SDS011;67802;50.846;7.958;2024-02-26T01:33:34;1.75;;;0.90;;
78508;SDS011;67802;50.846;7.958;2024-02-26T01:35:59;2.75;;;1.10;;
78508;SDS011;67802;50.846;7.958;2024-02-26T01:38:25;2.10;;;0.93;;
78508;SDS011;67802;50.846;7.958;2024-02-26T01:40:51;2.60;;;1.10;;
78508;SDS011;67802;50.846;7.958;2024-02-26T01:43:16;2.58;;;1.02;;
78508;SDS011;67802;50.846;7.958;2024-02-26T01:45:42;2.20;;;0.90;;
78508;SDS011;67802;50.846;7.958;2024-02-26T01:48:07;1.98;;;0.80;;
78508;SDS011;67802;50.846;7.958;2024-02-26T01:50:33;2.20;;;1.00;;
78508;SDS011;67802;50.846;7.958;2024-02-26T01:52:59;2.17;;;0.90;;
78508;SDS011;67802;50.846;7.958;2024-02-26T01:55:25;2.05;;;0.88;;
78508;SDS011;67802;50.846;7.958;2024-02-26T01:57:51;1.80;;;0.82;;
78508;SDS011;67802;50.846;7.958;2024-02-26T02:00:17;1.52;;;0.77;;
78508;SDS011;67802;50.846;7.958;2024-02-26T02:02:43;1.75;;;0.75;;
78508;SDS011;67802;50.846;7.958;2024-02-26T02:05:12;2.28;;;0.90;;
78508;SDS011;67802;50.846;7.958;2024-02-26T02:07:39;2.97;;;1.00;;
78508;SDS011;67802;50.846;7.958;2024-02-26T02:10:06;4.28;;;1.10;;
78508;SDS011;67802;50.846;7.958;2024-02-26T02:12:32;1.90;;;0.90;;
78508;SDS011;67802;50.846;7.958;2024-02-26T02:14:59;1.98;;;0.90;;
78508;SDS011;67802;50.846;7.958;2024-02-26T02:17:25;2.47;;;1.10;;
78508;SDS011;67802;50.846;7.958;2024-02-26T02:19:51;1.45;;;0.80;;
78508;SDS011;67802;50.846;7.958;2024-02-26T02:22:17;2.75;;;1.02;;
78508;SDS011;67802;50.846;7.958;2024-02-26T02:24:42;2.22;;;0.85;;
78508;SDS011;67802;50.846;7.958;2024-02-26T02:27:08;2.00;;;0.90;;
78508;SDS011;67802;50.846;7.958;2024-02-26T02:29:33;1.70;;;0.77;;
78508;SDS011;67802;50.846;7.958;2024-02-26T02:31:58;2.42;;;1.00;;
78508;SDS011;67802;50.846;7.958;2024-02-26T02:34:26;1.80;;;0.90;;
78508;SDS011;67802;50.846;7.958;2024-02-26T02:36:52;2.72;;;0.95;;
78508;SDS011;67802;50.846;7.958;2024-02-26T02:39:18;1.80;;;0.85;;
78508;SDS011;67802;50.846;7.958;2024-02-26T02:41:43;2.05;;;0.98;;
78508;SDS011;67802;50.846;7.958;2024-02-26T02:44:09;1.50;;;0.77;;
78508;SDS011;67802;50.846;7.958;2024-02-26T02:46:34;2.33;;;0.90;;
78508;SDS011;67802;50.846;7.958;2024-02-26T02:49:00;2.13;;;0.95;;
78508;SDS011;67802;50.846;7.958;2024-02-26T02:51:25;3.25;;;1.10;;
78508;SDS011;67802;50.846;7.958;2024-02-26T02:53:51;2.08;;;0.90;;
78508;SDS011;67802;50.846;7.958;2024-02-26T02:56:16;2.50;;;1.00;;
78508;SDS011;67802;50.846;7.958;2024-02-26T02:58:41;2.28;;;0.90;;
78508;SDS011;67802;50.846;7.958;2024-02-26T03:01:07;1.88;;;0.88;;
78508;SDS011;67802;50.846;7.958;2024-02-26T03:03:33;1.25;;;0.73;;
78508;SDS011;67802;50.846;7.958;2024-02-26T03:05:58;2.30;;;0.90;;
78508;SDS011;67802;50.846;7.958;2024-02-26T03:08:24;2.83;;;0.93;;
78508;SDS011;67802;50.846;7.958;2024-02-26T03:10:50;2.40;;;0.90;;
78508;SDS011;67802;50.846;7.958;2024-02-26T03:13:16;2.05;;;0.90;;
78508;SDS011;67802;50.846;7.958;2024-02-26T03:15:41;1.60;;;0.88;;
78508;SDS011;67802;50.846;7.958;2024-02-26T03:18:07;1.95;;;0.95;;
78508;SDS011;67802;50.846;7.958;2024-02-26T03:20:32;1.70;;;0.90;;
78508;SDS011;67802;50.846;7.958;2024-02-26T03:22:58;1.95;;;0.90;;
78508;SDS011;67802;50.846;7.958;2024-02-26T03:25:23;1.60;;;0.80;;
78508;SDS011;67802;50.846;7.958;2024-02-26T03:27:48;1.80;;;0.90;;
78508;SDS011;67802;50.846;7.958;2024-02-26T03:30:14;1.98;;;0.90;;
78508;SDS011;67802;50.846;7.958;2024-02-26T03:32:39;2.70;;;0.90;;
78508;SDS011;67802;50.846;7.958;2024-02-26T03:35:04;1.60;;;0.80;;
78508;SDS011;67802;50.846;7.958;2024-02-26T03:37:30;2.65;;;0.90;;
78508;SDS011;67802;50.846;7.958;2024-02-26T03:39:55;1.85;;;0.70;;
78508;SDS011;67802;50.846;7.958;2024-02-26T03:42:22;2.55;;;1.10;;
78508;SDS011;67802;50.846;7.958;2024-02-26T03:44:47;1.27;;;0.70;;
78508;SDS011;67802;50.846;7.958;2024-02-26T03:47:12;1.23;;;0.80;;
78508;SDS011;67802;50.846;7.958;2024-02-26T03:49:38;1.35;;;0.73;;
78508;SDS011;67802;50.846;7.958;2024-02-26T03:52:03;2.30;;;1.00;;
78508;SDS011;67802;50.846;7.958;2024-02-26T03:54:28;1.55;;;0.75;;
78508;SDS011;67802;50.846;7.958;2024-02-26T03:56:54;1.60;;;0.70;;
78508;SDS011;67802;50.846;7.958;2024-02-26T03:59:19;2.00;;;0.90;;
78508;SDS011;67802;50.846;7.958;2024-02-26T04:01:45;2.00;;;0.85;;
78508;SDS011;67802;50.846;7.958;2024-02-26T04:04:14;1.50;;;0.73;;
78508;SDS011;67802;50.846;7.958;2024-02-26T04:06:42;1.20;;;0.75;;
78508;SDS011;67802;50.846;7.958;2024-02-26T04:09:09;1.70;;;0.90;;
78508;SDS011;67802;50.846;7.958;2024-02-26T04:11:35;1.42;;;0.70;;
78508;SDS011;67802;50.846;7.958;2024-02-26T04:14:00;2.38;;;0.75;;
78508;SDS011;67802;50.846;7.958;2024-02-26T04:16:26;1.10;;;0.70;;
78508;SDS011;67802;50.846;7.958;2024-02-26T04:18:51;1.20;;;0.77;;
78508;SDS011;67802;50.846;7.958;2024-02-26T04:21:18;1.63;;;0.77;;
78508;SDS011;67802;50.846;7.958;2024-02-26T04:23:43;0.98;;;0.68;;
78508;SDS011;67802;50.846;7.958;2024-02-26T04:26:09;2.17;;;0.90;;
78508;SDS011;67802;50.846;7.958;2024-02-26T04:28:34;2.10;;;0.95;;
78508;SDS011;67802;50.846;7.958;2024-02-26T04:31:00;2.08;;;0.82;;
78508;SDS011;67802;50.846;7.958;2024-02-26T04:33:25;1.17;;;0.70;;
78508;SDS011;67802;50.846;7.958;2024-02-26T04:35:51;1.70;;;0.73;;
78508;SDS011;67802;50.846;7.958;2024-02-26T04:38:16;1.63;;;0.70;;
78508;SDS011;67802;50.846;7.958;2024-02-26T04:40:41;2.10;;;0.90;;
78508;SDS011;67802;50.846;7.958;2024-02-26T04:43:07;2.33;;;0.90;;
78508;SDS011;67802;50.846;7.958;2024-02-26T04:45:32;1.90;;;0.90;;
78508;SDS011;67802;50.846;7.958;2024-02-26T04:47:57;2.67;;;0.80;;
78508;SDS011;67802;50.846;7.958;2024-02-26T04:50:22;1.92;;;0.75;;
78508;SDS011;67802;50.846;7.958;2024-02-26T04:52:48;1.23;;;0.70;;
78508;SDS011;67802;50.846;7.958;2024-02-26T04:55:13;1.88;;;0.80;;
78508;SDS011;67802;50.846;7.958;2024-02-26T04:57:38;1.30;;;0.65;;
78508;SDS011;67802;50.846;7.958;2024-02-26T05:00:04;0.95;;;0.60;;
78508;SDS011;67802;50.846;7.958;2024-02-26T05:02:30;1.10;;;0.52;;
78508;SDS011;67802;50.846;7.958;2024-02-26T05:04:58;2.25;;;0.90;;
78508;SDS011;67802;50.846;7.958;2024-02-26T05:07:23;2.08;;;0.90;;
78508;SDS011;67802;50.846;7.958;2024-02-26T05:09:49;1.25;;;0.70;;
78508;SDS011;67802;50.846;7.958;2024-02-26T05:12:17;2.45;;;0.90;;
78508;SDS011;67802;50.846;7.958;2024-02-26T05:14:42;1.73;;;0.80;;
78508;SDS011;67802;50.846;7.958;2024-02-26T05:17:07;1.55;;;0.77;;
78508;SDS011;67802;50.846;7.958;2024-02-26T05:19:33;1.55;;;0.93;;
78508;SDS011;67802;50.846;7.958;2024-02-26T05:21:58;1.63;;;0.70;;
78508;SDS011;67802;50.846;7.958;2024-02-26T05:24:23;1.05;;;0.60;;
78508;SDS011;67802;50.846;7.958;2024-02-26T05:26:49;1.42;;;0.80;;
78508;SDS011;67802;50.846;7.958;2024-02-26T05:29:14;1.58;;;0.90;;
78508;SDS011;67802;50.846;7.958;2024-02-26T05:31:41;1.85;;;0.80;;
78508;SDS011;67802;50.846;7.958;2024-02-26T05:34:07;1.77;;;0.80;;
78508;SDS011;67802;50.846;7.958;2024-02-26T05:36:32;1.85;;;0.90;;
78508;SDS011;67802;50.846;7.958;2024-02-26T05:38:59;1.27;;;0.75;;
78508;SDS011;67802;50.846;7.958;2024-02-26T05:41:28;1.88;;;0.80;;
78508;SDS011;67802;50.846;7.958;2024-02-26T05:43:54;1.48;;;0.70;;
78508;SDS011;67802;50.846;7.958;2024-02-26T05:46:19;1.45;;;0.80;;
78508;SDS011;67802;50.846;7.958;2024-02-26T05:48:52;1.63;;;0.80;;
78508;SDS011;67802;50.846;7.958;2024-02-26T05:51:18;2.22;;;0.90;;
78508;SDS011;67802;50.846;7.958;2024-02-26T05:53:43;1.67;;;0.80;;
78508;SDS011;67802;50.846;7.958;2024-02-26T05:56:09;1.63;;;0.70;;
78508;SDS011;67802;50.846;7.958;2024-02-26T05:58:34;2.03;;;1.00;;
78508;SDS011;67802;50.846;7.958;2024-02-26T06:00:59;1.67;;;0.80;;
78508;SDS011;67802;50.846;7.958;2024-02-26T06:03:25;1.73;;;0.80;;
78508;SDS011;67802;50.846;7.958;2024-02-26T06:05:51;2.13;;;0.80;;
78508;SDS011;67802;50.846;7.958;2024-02-26T06:08:16;1.88;;;0.85;;
78508;SDS011;67802;50.846;7.958;2024-02-26T06:10:41;2.22;;;0.90;;
78508;SDS011;67802;50.846;7.958;2024-02-26T06:13:07;1.75;;;0.82;;
78508;SDS011;67802;50.846;7.958;2024-02-26T06:15:32;2.03;;;0.80;;
78508;SDS011;67802;50.846;7.958;2024-02-26T06:17:57;1.70;;;0.90;;
78508;SDS011;67802;50.846;7.958;2024-02-26T06:20:23;1.20;;;0.70;;
78508;SDS011;67802;50.846;7.958;2024-02-26T06:22:48;2.17;;;0.90;;
78508;SDS011;67802;50.846;7.958;2024-02-26T06:25:13;2.47;;;0.90;;
78508;SDS011;67802;50.846;7.958;2024-02-26T06:27:39;1.25;;;0.70;;
78508;SDS011;67802;50.846;7.958;2024-02-26T06:30:04;1.60;;;0.77;;
78508;SDS011;67802;50.846;7.958;2024-02-26T06:32:30;1.60;;;0.90;;
78508;SDS011;67802;50.846;7.958;2024-02-26T06:34:55;1.75;;;0.80;;
78508;SDS011;67802;50.846;7.958;2024-02-26T06:37:21;2.00;;;0.75;;
78508;SDS011;67802;50.846;7.958;2024-02-26T06:39:47;1.83;;;0.80;;
78508;SDS011;67802;50.846;7.958;2024-02-26T06:42:12;1.70;;;0.73;;
78508;SDS011;67802;50.846;7.958;2024-02-26T06:44:38;1.92;;;0.90;;
78508;SDS011;67802;50.846;7.958;2024-02-26T06:47:03;2.03;;;0.80;;
78508;SDS011;67802;50.846;7.958;2024-02-26T06:49:29;1.80;;;0.90;;
78508;SDS011;67802;50.846;7.958;2024-02-26T06:51:54;1.60;;;0.73;;
78508;SDS011;67802;50.846;7.958;2024-02-26T06:54:19;1.85;;;0.80;;
78508;SDS011;67802;50.846;7.958;2024-02-26T06:56:45;2.13;;;0.90;;
78508;SDS011;67802;50.846;7.958;2024-02-26T06:59:10;1.65;;;0.80;;
78508;SDS011;67802;50.846;7.958;2024-02-26T07:01:36;1.63;;;0.80;;
78508;SDS011;67802;50.846;7.958;2024-02-26T07:04:01;2.38;;;0.98;;
78508;SDS011;67802;50.846;7.958;2024-02-26T07:06:27;1.55;;;0.80;;
78508;SDS011;67802;50.846;7.958;2024-02-26T07:08:52;1.88;;;0.80;;
78508;SDS011;67802;50.846;7.958;2024-02-26T07:11:17;1.77;;;0.80;;
78508;SDS011;67802;50.846;7.958;2024-02-26T07:13:44;1.13;;;0.70;;
78508;SDS011;67802;50.846;7.958;2024-02-26T07:16:10;1.40;;;0.80;;
78508;SDS011;67802;50.846;7.958;2024-02-26T07:18:36;1.98;;;0.82;;
78508;SDS011;67802;50.846;7.958;2024-02-26T07:21:02;1.33;;;0.70;;
78508;SDS011;67802;50.846;7.958;2024-02-26T07:23:27;1.48;;;0.80;;
78508;SDS011;67802;50.846;7.958;2024-02-26T07:25:53;2.70;;;1.00;;
78508;SDS011;67802;50.846;7.958;2024-02-26T07:28:18;2.30;;;0.90;;
78508;SDS011;67802;50.846;7.958;2024-02-26T07:30:44;1.40;;;0.80;;
78508;SDS011;67802;50.846;7.958;2024-02-26T07:33:10;2.25;;;0.75;;
78508;SDS011;67802;50.846;7.958;2024-02-26T07:35:35;1.52;;;0.90;;
78508;SDS011;67802;50.846;7.958;2024-02-26T07:38:01;1.70;;;0.70;;
78508;SDS011;67802;50.846;7.958;2024-02-26T07:40:27;1.35;;;0.77;;
78508;SDS011;67802;50.846;7.958;2024-02-26T07:42:52;2.83;;;0.93;;
78508;SDS011;67802;50.846;7.958;2024-02-26T07:45:17;1.80;;;0.77;;
78508;SDS011;67802;50.846;7.958;2024-02-26T07:47:45;1.95;;;0.80;;
78508;SDS011;67802;50.846;7.958;2024-02-26T07:50:11;1.92;;;0.80;;
78508;SDS011;67802;50.846;7.958;2024-02-26T07:52:36;1.98;;;1.00;;
78508;SDS011;67802;50.846;7.958;2024-02-26T07:55:02;1.23;;;0.90;;
78508;SDS011;67802;50.846;7.958;2024-02-26T07:57:28;2.50;;;0.95;;
78508;SDS011;67802;50.846;7.958;2024-02-26T07:59:53;1.92;;;0.93;;
78508;SDS011;67802;50.846;7.958;2024-02-26T08:02:18;2.10;;;0.90;;
78508;SDS011;67802;50.846;7.958;2024-02-26T08:04:44;2.35;;;1.00;;
78508;SDS011;67802;50.846;7.958;2024-02-26T08:07:09;2.00;;;1.10;;
78508;SDS011;67802;50.846;7.958;2024-02-26T08:09:34;2.13;;;1.00;;
78508;SDS011;67802;50.846;7.958;2024-02-26T08:11:59;2.35;;;0.90;;
78508;SDS011;67802;50.846;7.958;2024-02-26T08:14:25;2.65;;;1.00;;
78508;SDS011;67802;50.846;7.958;2024-02-26T08:16:50;2.67;;;1.15;;
78508;SDS011;67802;50.846;7.958;2024-02-26T08:19:15;2.38;;;1.10;;
78508;SDS011;67802;50.846;7.958;2024-02-26T08:21:42;1.92;;;0.93;;
78508;SDS011;67802;50.846;7.958;2024-02-26T08:24:08;2.53;;;1.00;;
78508;SDS011;67802;50.846;7.958;2024-02-26T08:26:33;3.22;;;1.10;;
78508;SDS011;67802;50.846;7.958;2024-02-26T08:28:58;2.30;;;1.00;;
78508;SDS011;67802;50.846;7.958;2024-02-26T08:31:23;1.65;;;0.90;;
78508;SDS011;67802;50.846;7.958;2024-02-26T08:33:49;2.47;;;0.90;;
78508;SDS011;67802;50.846;7.958;2024-02-26T08:36:14;2.30;;;0.93;;
78508;SDS011;67802;50.846;7.958;2024-02-26T08:38:39;2.85;;;1.10;;
78508;SDS011;67802;50.846;7.958;2024-02-26T08:41:05;2.00;;;0.90;;
78508;SDS011;67802;50.846;7.958;2024-02-26T08:43:30;4.05;;;1.02;;
78508;SDS011;67802;50.846;7.958;2024-02-26T08:45:56;2.30;;;1.05;;
78508;SDS011;67802;50.846;7.958;2024-02-26T08:48:22;2.72;;;1.10;;
78508;SDS011;67802;50.846;7.958;2024-02-26T08:50:47;2.63;;;1.13;;
78508;SDS011;67802;50.846;7.958;2024-02-26T08:53:12;2.20;;;0.95;;
78508;SDS011;67802;50.846;7.958;2024-02-26T08:55:38;2.75;;;1.00;;
78508;SDS011;67802;50.846;7.958;2024-02-26T08:58:03;1.80;;;0.97;;
78508;SDS011;67802;50.846;7.958;2024-02-26T09:00:28;2.50;;;1.10;;
78508;SDS011;67802;50.846;7.958;2024-02-26T09:02:54;2.20;;;1.00;;
78508;SDS011;67802;50.846;7.958;2024-02-26T09:05:19;2.55;;;1.10;;
78508;SDS011;67802;50.846;7.958;2024-02-26T09:07:44;1.83;;;0.90;;
78508;SDS011;67802;50.846;7.958;2024-02-26T09:10:11;2.85;;;1.00;;
78508;SDS011;67802;50.846;7.958;2024-02-26T09:12:37;2.35;;;1.00;;
78508;SDS011;67802;50.846;7.958;2024-02-26T09:15:05;2.83;;;1.08;;
78508;SDS011;67802;50.846;7.958;2024-02-26T09:17:31;2.22;;;1.10;;
78508;SDS011;67802;50.846;7.958;2024-02-26T09:19:56;2.63;;;1.10;;
78508;SDS011;67802;50.846;7.958;2024-02-26T09:22:22;3.50;;;1.13;;
78508;SDS011;67802;50.846;7.958;2024-02-26T09:24:47;2.38;;;1.10;;
78508;SDS011;67802;50.846;7.958;2024-02-26T09:27:15;3.05;;;1.05;;
78508;SDS011;67802;50.846;7.958;2024-02-26T09:29:40;2.95;;;1.20;;
78508;SDS011;67802;50.846;7.958;2024-02-26T09:32:06;2.53;;;1.20;;
78508;SDS011;67802;50.846;7.958;2024-02-26T09:34:31;3.55;;;1.20;;
78508;SDS011;67802;50.846;7.958;2024-02-26T09:36:56;3.10;;;1.10;;
78508;SDS011;67802;50.846;7.958;2024-02-26T09:39:22;2.03;;;1.10;;
78508;SDS011;67802;50.846;7.958;2024-02-26T09:41:48;3.15;;;1.23;;
78508;SDS011;67802;50.846;7.958;2024-02-26T09:44:15;3.03;;;1.20;;
78508;SDS011;67802;50.846;7.958;2024-02-26T09:46:45;2.40;;;1.08;;
78508;SDS011;67802;50.846;7.958;2024-02-26T09:49:12;2.22;;;0.95;;
78508;SDS011;67802;50.846;7.958;2024-02-26T09:51:40;2.60;;;1.17;;
78508;SDS011;67802;50.846;7.958;2024-02-26T09:54:05;2.50;;;1.00;;
78508;SDS011;67802;50.846;7.958;2024-02-26T09:56:34;2.95;;;1.20;;
78508;SDS011;67802;50.846;7.958;2024-02-26T09:59:01;3.20;;;1.17;;
78508;SDS011;67802;50.846;7.958;2024-02-26T10:01:31;2.42;;;1.20;;
78508;SDS011;67802;50.846;7.958;2024-02-26T10:03:59;2.28;;;1.00;;
78508;SDS011;67802;50.846;7.958;2024-02-26T10:06:28;2.42;;;1.10;;
78508;SDS011;67802;50.846;7.958;2024-02-26T10:08:54;3.03;;;1.10;;
78508;SDS011;67802;50.846;7.958;2024-02-26T10:11:20;2.47;;;1.10;;
78508;SDS011;67802;50.846;7.958;2024-02-26T10:13:47;2.78;;;1.20;;
78508;SDS011;67802;50.846;7.958;2024-02-26T10:16:12;2.55;;;1.10;;
78508;SDS011;67802;50.846;7.958;2024-02-26T10:19:12;2.25;;;0.95;;
78508;SDS011;67802;50.846;7.958;2024-02-26T10:21:30;2.85;;;1.40;;
78508;SDS011;67802;50.846;7.958;2024-02-26T10:23:55;2.38;;;1.20;;
78508;SDS011;67802;50.846;7.958;2024-02-26T10:26:21;3.00;;;1.33;;
78508;SDS011;67802;50.846;7.958;2024-02-26T10:28:46;3.10;;;1.48;;
78508;SDS011;67802;50.846;7.958;2024-02-26T10:31:13;2.95;;;1.20;;
78508;SDS011;67802;50.846;7.958;2024-02-26T10:33:39;2.17;;;1.10;;
78508;SDS011;67802;50.846;7.958;2024-02-26T10:36:06;3.03;;;1.42;;
78508;SDS011;67802;50.846;7.958;2024-02-26T10:38:36;2.47;;;1.10;;
78508;SDS011;67802;50.846;7.958;2024-02-26T10:41:12;1.95;;;1.02;;
78508;SDS011;67802;50.846;7.958;2024-02-26T10:43:39;3.08;;;1.13;;
78508;SDS011;67802;50.846;7.958;2024-02-26T10:46:08;2.22;;;1.10;;
78508;SDS011;67802;50.846;7.958;2024-02-26T10:48:33;2.35;;;1.20;;
78508;SDS011;67802;50.846;7.958;2024-02-26T10:50:58;3.05;;;1.38;;
78508;SDS011;67802;50.846;7.958;2024-02-26T10:53:25;3.47;;;1.27;;
78508;SDS011;67802;50.846;7.958;2024-02-26T10:56:03;3.35;;;1.20;;
78508;SDS011;67802;50.846;7.958;2024-02-26T10:58:31;3.25;;;1.20;;
78508;SDS011;67802;50.846;7.958;2024-02-26T11:00:56;3.25;;;1.10;;
78508;SDS011;67802;50.846;7.958;2024-02-26T11:03:22;3.30;;;1.23;;
78508;SDS011;67802;50.846;7.958;2024-02-26T11:05:49;4.70;;;1.55;;
78508;SDS011;67802;50.846;7.958;2024-02-26T11:08:15;4.18;;;1.40;;
78508;SDS011;67802;50.846;7.958;2024-02-26T11:10:43;3.35;;;1.33;;
78508;SDS011;67802;50.846;7.958;2024-02-26T11:13:09;3.50;;;1.20;;
78508;SDS011;67802;50.846;7.958;2024-02-26T11:15:37;3.60;;;1.40;;
78508;SDS011;67802;50.846;7.958;2024-02-26T11:18:04;4.38;;;1.50;;
78508;SDS011;67802;50.846;7.958;2024-02-26T11:20:30;4.43;;;1.65;;
78508;SDS011;67802;50.846;7.958;2024-02-26T11:22:58;6.68;;;1.90;;
78508;SDS011;67802;50.846;7.958;2024-02-26T11:25:23;6.07;;;2.20;;
78508;SDS011;67802;50.846;7.958;2024-02-26T11:27:50;4.97;;;1.77;;
78508;SDS011;67802;50.846;7.958;2024-02-26T11:30:22;6.10;;;2.50;;
78508;SDS011;67802;50.846;7.958;2024-02-26T11:32:51;5.43;;;2.03;;
78508;SDS011;67802;50.846;7.958;2024-02-26T11:35:18;8.15;;;2.17;;
78508;SDS011;67802;50.846;7.958;2024-02-26T11:37:53;7.10;;;2.70;;
78508;SDS011;67802;50.846;7.958;2024-02-26T11:40:19;7.70;;;2.33;;
78508;SDS011;67802;50.846;7.958;2024-02-26T11:42:45;8.88;;;2.83;;
78508;SDS011;67802;50.846;7.958;2024-02-26T11:48:12;125.72;;;54.75;;
78508;SDS011;67802;50.846;7.958;2024-02-26T11:50:40;86.90;;;41.53;;
78508;SDS011;67802;50.846;7.958;2024-02-26T11:55:45;60.78;;;27.00;;
78508;SDS011;67802;50.846;7.958;2024-02-26T11:58:10;54.33;;;24.10;;
78508;SDS011;67802;50.846;7.958;2024-02-26T12:00:36;51.10;;;22.50;;
78508;SDS011;67802;50.846;7.958;2024-02-26T12:03:01;43.85;;;19.55;;
78508;SDS011;67802;50.846;7.958;2024-02-26T12:05:31;48.17;;;20.30;;
78508;SDS011;67802;50.846;7.958;2024-02-26T12:08:01;36.63;;;15.73;;
78508;SDS011;67802;50.846;7.958;2024-02-26T12:10:41;39.10;;;15.45;;
78508;SDS011;67802;50.846;7.958;2024-02-26T12:13:13;30.33;;;12.98;;
78508;SDS011;67802;50.846;7.958;2024-02-26T12:15:41;30.35;;;14.10;;
78508;SDS011;67802;50.846;7.958;2024-02-26T12:20:36;30.38;;;12.05;;
78508;SDS011;67802;50.846;7.958;2024-02-26T12:23:02;25.25;;;11.88;;
78508;SDS011;67802;50.846;7.958;2024-02-26T12:25:29;26.35;;;11.98;;
78508;SDS011;67802;50.846;7.958;2024-02-26T12:27:56;26.88;;;12.70;;
78508;SDS011;67802;50.846;7.958;2024-02-26T12:30:22;23.67;;;12.52;;
78508;SDS011;67802;50.846;7.958;2024-02-26T12:32:48;26.42;;;11.18;;
78508;SDS011;67802;50.846;7.958;2024-02-26T12:35:15;23.25;;;11.20;;
78508;SDS011;67802;50.846;7.958;2024-02-26T12:37:42;26.65;;;10.63;;
78508;SDS011;67802;50.846;7.958;2024-02-26T12:40:08;26.55;;;10.63;;
78508;SDS011;67802;50.846;7.958;2024-02-26T12:42:37;21.83;;;10.30;;
78508;SDS011;67802;50.846;7.958;2024-02-26T12:45:06;21.27;;;9.70;;
78508;SDS011;67802;50.846;7.958;2024-02-26T12:47:37;20.98;;;9.18;;
78508;SDS011;67802;50.846;7.958;2024-02-26T12:50:06;17.88;;;8.95;;
78508;SDS011;67802;50.846;7.958;2024-02-26T12:52:33;18.30;;;8.15;;
78508;SDS011;67802;50.846;7.958;2024-02-26T12:55:00;13.15;;;5.20;;
78508;SDS011;67802;50.846;7.958;2024-02-26T12:57:27;12.18;;;5.00;;
78508;SDS011;67802;50.846;7.958;2024-02-26T12:59:55;11.82;;;5.93;;
78508;SDS011;67802;50.846;7.958;2024-02-26T13:02:20;11.93;;;5.38;;
78508;SDS011;67802;50.846;7.958;2024-02-26T13:04:46;10.45;;;4.63;;
78508;SDS011;67802;50.846;7.958;2024-02-26T13:07:12;11.43;;;5.05;;
78508;SDS011;67802;50.846;7.958;2024-02-26T13:09:37;10.88;;;4.97;;
78508;SDS011;67802;50.846;7.958;2024-02-26T13:12:03;10.05;;;4.50;;
78508;SDS011;67802;50.846;7.958;2024-02-26T13:14:29;8.35;;;4.53;;
78508;SDS011;67802;50.846;7.958;2024-02-26T13:16:59;10.15;;;4.32;;
78508;SDS011;67802;50.846;7.958;2024-02-26T13:19:26;9.63;;;3.90;;
78508;SDS011;67802;50.846;7.958;2024-02-26T13:21:52;9.10;;;4.28;;
78508;SDS011;67802;50.846;7.958;2024-02-26T13:24:19;9.18;;;3.92;;
78508;SDS011;67802;50.846;7.958;2024-02-26T13:26:45;7.45;;;3.72;;
78508;SDS011;67802;50.846;7.958;2024-02-26T13:29:20;10.20;;;3.78;;
78508;SDS011;67802;50.846;7.958;2024-02-26T13:31:45;12.75;;;3.78;;
78508;SDS011;67802;50.846;7.958;2024-02-26T13:34:11;9.25;;;3.75;;
78508;SDS011;67802;50.846;7.958;2024-02-26T13:39:20;8.97;;;3.30;;
78508;SDS011;67802;50.846;7.958;2024-02-26T13:41:47;7.00;;;2.95;;
78508;SDS011;67802;50.846;7.958;2024-02-26T13:44:12;6.10;;;3.05;;
78508;SDS011;67802;50.846;7.958;2024-02-26T13:46:38;9.27;;;3.47;;
78508;SDS011;67802;50.846;7.958;2024-02-26T13:49:03;6.17;;;2.97;;
78508;SDS011;67802;50.846;7.958;2024-02-26T13:51:28;9.13;;;2.67;;
78508;SDS011;67802;50.846;7.958;2024-02-26T13:54:00;6.75;;;3.08;;
78508;SDS011;67802;50.846;7.958;2024-02-26T13:56:25;7.65;;;2.90;;
78508;SDS011;67802;50.846;7.958;2024-02-26T13:58:51;5.57;;;2.70;;
78508;SDS011;67802;50.846;7.958;2024-02-26T14:01:16;6.97;;;2.78;;
78508;SDS011;67802;50.846;7.958;2024-02-26T14:03:41;6.38;;;2.97;;
78508;SDS011;67802;50.846;7.958;2024-02-26T14:06:07;8.10;;;2.83;;
78508;SDS011;67802;50.846;7.958;2024-02-26T14:08:32;5.53;;;2.72;;
78508;SDS011;67802;50.846;7.958;2024-02-26T14:10:58;6.13;;;2.50;;
78508;SDS011;67802;50.846;7.958;2024-02-26T14:13:25;8.55;;;2.72;;
78508;SDS011;67802;50.846;7.958;2024-02-26T14:15:50;5.82;;;2.55;;
78508;SDS011;67802;50.846;7.958;2024-02-26T14:18:15;8.00;;;2.88;;
78508;SDS011;67802;50.846;7.958;2024-02-26T14:20:41;5.30;;;2.50;;
78508;SDS011;67802;50.846;7.958;2024-02-26T14:23:06;5.15;;;2.20;;
78508;SDS011;67802;50.846;7.958;2024-02-26T14:25:31;5.18;;;2.22;;
78508;SDS011;67802;50.846;7.958;2024-02-26T14:27:57;5.90;;;2.53;;
78508;SDS011;67802;50.846;7.958;2024-02-26T14:30:23;4.70;;;2.08;;
78508;SDS011;67802;50.846;7.958;2024-02-26T14:32:50;5.15;;;2.33;;
78508;SDS011;67802;50.846;7.958;2024-02-26T14:35:15;4.63;;;2.30;;
78508;SDS011;67802;50.846;7.958;2024-02-26T14:37:40;4.95;;;2.28;;
78508;SDS011;67802;50.846;7.958;2024-02-26T14:40:06;6.50;;;2.75;;
78508;SDS011;67802;50.846;7.958;2024-02-26T14:42:33;4.78;;;2.20;;
78508;SDS011;67802;50.846;7.958;2024-02-26T14:44:58;5.15;;;2.20;;
78508;SDS011;67802;50.846;7.958;2024-02-26T14:47:24;5.38;;;2.28;;
78508;SDS011;67802;50.846;7.958;2024-02-26T14:49:50;6.28;;;2.50;;